Gondar, Ethiopia
Current Conditions -  °F | °C
As of 1:00 PM on Friday 19 Dec 2014 (Local Time) from HSSS Reporting Station
Clear Clear  
Wind Chill: 88°   Ceiling: Unl
Heat Index: 88°   Visibility: 6mi
Dew Point: 45°   Wind: 9mph
Humidity: 22%   Direction: 360°N
Pressure: 29.94"   Gusts: NA
Location:  12.61°N, 37.46°E
Report Text: HSSS 191000Z 36008KT CAVOK 31/07 Q1014 NOSIG
Loading
Personal Weather Stations






























Interactive Weather Map New forecast layout! Learn more

10-Day Weather Forecast

Advertisements
Track Severe Weather on mobile